sensor_id;sensor_type;location;lat;lon;timestamp;temperature;humidity
13684;DHT22;6914;53.552;9.908;2023-03-14T00:01:24;10.60;99.90
13684;DHT22;6914;53.552;9.908;2023-03-14T00:03:51;10.40;99.90
13684;DHT22;6914;53.552;9.908;2023-03-14T00:06:18;10.40;99.90
13684;DHT22;6914;53.552;9.908;2023-03-14T00:08:45;10.50;99.90
13684;DHT22;6914;53.552;9.908;2023-03-14T00:11:14;10.40;99.90
13684;DHT22;6914;53.552;9.908;2023-03-14T00:13:43;10.30;99.90
13684;DHT22;6914;53.552;9.908;2023-03-14T00:16:12;10.40;99.90
13684;DHT22;6914;53.552;9.908;2023-03-14T00:18:40;10.30;99.90
13684;DHT22;6914;53.552;9.908;2023-03-14T00:21:09;10.40;99.90
13684;DHT22;6914;53.552;9.908;2023-03-14T00:23:40;10.50;99.90
13684;DHT22;6914;53.552;9.908;2023-03-14T00:26:10;10.40;99.90
13684;DHT22;6914;53.552;9.908;2023-03-14T00:28:39;10.50;99.90
13684;DHT22;6914;53.552;9.908;2023-03-14T00:31:10;10.50;99.90
13684;DHT22;6914;53.552;9.908;2023-03-14T00:33:41;10.70;99.90
13684;DHT22;6914;53.552;9.908;2023-03-14T00:36:14;10.60;99.90
13684;DHT22;6914;53.552;9.908;2023-03-14T00:38:43;10.70;99.90
13684;DHT22;6914;53.552;9.908;2023-03-14T00:41:15;10.80;99.90
13684;DHT22;6914;53.552;9.908;2023-03-14T00:43:43;11.00;99.90
13684;DHT22;6914;53.552;9.908;2023-03-14T00:46:14;10.30;99.90
13684;DHT22;6914;53.552;9.908;2023-03-14T00:48:41;10.40;99.90
13684;DHT22;6914;53.552;9.908;2023-03-14T00:51:09;10.80;99.90
13684;DHT22;6914;53.552;9.908;2023-03-14T00:53:40;10.70;99.90
13684;DHT22;6914;53.552;9.908;2023-03-14T00:56:10;10.60;99.90
13684;DHT22;6914;53.552;9.908;2023-03-14T00:58:39;10.70;99.90
13684;DHT22;6914;53.552;9.908;2023-03-14T01:01:07;10.60;99.90
13684;DHT22;6914;53.552;9.908;2023-03-14T01:03:37;10.40;99.90
13684;DHT22;6914;53.552;9.908;2023-03-14T01:06:10;10.80;99.90
13684;DHT22;6914;53.552;9.908;2023-03-14T01:08:40;10.80;99.90
13684;DHT22;6914;53.552;9.908;2023-03-14T01:11:08;10.60;99.90
13684;DHT22;6914;53.552;9.908;2023-03-14T01:13:39;10.90;99.90
13684;DHT22;6914;53.552;9.908;2023-03-14T01:16:08;10.70;99.90
13684;DHT22;6914;53.552;9.908;2023-03-14T01:18:40;11.00;99.90
13684;DHT22;6914;53.552;9.908;2023-03-14T01:21:15;10.80;99.90
13684;DHT22;6914;53.552;9.908;2023-03-14T01:23:44;10.80;99.90
13684;DHT22;6914;53.552;9.908;2023-03-14T01:26:12;10.80;99.90
13684;DHT22;6914;53.552;9.908;2023-03-14T01:28:42;10.90;99.90
13684;DHT22;6914;53.552;9.908;2023-03-14T01:31:11;11.00;99.90
13684;DHT22;6914;53.552;9.908;2023-03-14T01:33:44;11.70;99.90
13684;DHT22;6914;53.552;9.908;2023-03-14T01:36:12;11.10;99.90
13684;DHT22;6914;53.552;9.908;2023-03-14T01:38:41;10.80;99.90
13684;DHT22;6914;53.552;9.908;2023-03-14T01:41:13;10.90;99.90
13684;DHT22;6914;53.552;9.908;2023-03-14T01:43:41;10.80;99.90
13684;DHT22;6914;53.552;9.908;2023-03-14T01:46:28;10.80;99.90
13684;DHT22;6914;53.552;9.908;2023-03-14T01:49:09;11.00;99.90
13684;DHT22;6914;53.552;9.908;2023-03-14T01:51:49;10.80;99.90
13684;DHT22;6914;53.552;9.908;2023-03-14T01:54:21;10.40;99.90
13684;DHT22;6914;53.552;9.908;2023-03-14T01:56:54;10.70;99.90
13684;DHT22;6914;53.552;9.908;2023-03-14T01:59:22;10.70;99.90
13684;DHT22;6914;53.552;9.908;2023-03-14T02:01:51;10.80;99.90
13684;DHT22;6914;53.552;9.908;2023-03-14T02:04:21;10.50;99.90
13684;DHT22;6914;53.552;9.908;2023-03-14T02:06:56;10.40;99.90
13684;DHT22;6914;53.552;9.908;2023-03-14T02:09:24;10.40;99.90
13684;DHT22;6914;53.552;9.908;2023-03-14T02:11:51;10.60;99.90
13684;DHT22;6914;53.552;9.908;2023-03-14T02:14:27;10.50;99.90
13684;DHT22;6914;53.552;9.908;2023-03-14T02:16:56;11.00;99.90
13684;DHT22;6914;53.552;9.908;2023-03-14T02:19:34;10.40;99.90
13684;DHT22;6914;53.552;9.908;2023-03-14T02:22:06;10.40;99.90
13684;DHT22;6914;53.552;9.908;2023-03-14T02:24:40;10.20;99.90
13684;DHT22;6914;53.552;9.908;2023-03-14T02:27:16;10.40;99.90
13684;DHT22;6914;53.552;9.908;2023-03-14T02:29:49;10.20;99.90
13684;DHT22;6914;53.552;9.908;2023-03-14T02:32:18;10.20;99.90
13684;DHT22;6914;53.552;9.908;2023-03-14T02:34:48;10.30;99.90
13684;DHT22;6914;53.552;9.908;2023-03-14T02:37:17;10.30;99.90
13684;DHT22;6914;53.552;9.908;2023-03-14T02:39:45;10.50;99.90
13684;DHT22;6914;53.552;9.908;2023-03-14T02:42:18;10.20;99.90
13684;DHT22;6914;53.552;9.908;2023-03-14T02:44:53;10.40;99.90
13684;DHT22;6914;53.552;9.908;2023-03-14T02:47:25;10.20;99.90
13684;DHT22;6914;53.552;9.908;2023-03-14T02:49:57;10.20;99.90
13684;DHT22;6914;53.552;9.908;2023-03-14T02:52:27;10.30;99.90
13684;DHT22;6914;53.552;9.908;2023-03-14T02:54:55;10.50;99.90
13684;DHT22;6914;53.552;9.908;2023-03-14T02:57:23;10.30;99.90
13684;DHT22;6914;53.552;9.908;2023-03-14T02:59:50;10.60;99.90
13684;DHT22;6914;53.552;9.908;2023-03-14T03:02:17;10.70;99.90
13684;DHT22;6914;53.552;9.908;2023-03-14T03:04:44;10.60;99.90
13684;DHT22;6914;53.552;9.908;2023-03-14T03:07:11;10.60;99.90
13684;DHT22;6914;53.552;9.908;2023-03-14T03:09:38;10.70;99.90
13684;DHT22;6914;53.552;9.908;2023-03-14T03:12:05;10.50;99.90
13684;DHT22;6914;53.552;9.908;2023-03-14T03:14:34;10.70;99.90
13684;DHT22;6914;53.552;9.908;2023-03-14T03:17:02;9.70;99.90
13684;DHT22;6914;53.552;9.908;2023-03-14T03:19:30;10.70;99.90
13684;DHT22;6914;53.552;9.908;2023-03-14T03:21:57;10.90;99.90
13684;DHT22;6914;53.552;9.908;2023-03-14T03:24:25;10.60;99.90
13684;DHT22;6914;53.552;9.908;2023-03-14T03:26:52;10.70;99.90
13684;DHT22;6914;53.552;9.908;2023-03-14T03:29:19;10.60;99.90
13684;DHT22;6914;53.552;9.908;2023-03-14T03:31:48;10.70;99.90
13684;DHT22;6914;53.552;9.908;2023-03-14T03:34:16;10.60;99.90
13684;DHT22;6914;53.552;9.908;2023-03-14T03:36:42;10.90;99.90
13684;DHT22;6914;53.552;9.908;2023-03-14T03:39:09;10.70;99.90
13684;DHT22;6914;53.552;9.908;2023-03-14T03:41:37;11.10;99.90
13684;DHT22;6914;53.552;9.908;2023-03-14T03:44:04;11.00;99.90
13684;DHT22;6914;53.552;9.908;2023-03-14T03:46:31;10.80;99.90
13684;DHT22;6914;53.552;9.908;2023-03-14T03:49:00;10.70;99.90
13684;DHT22;6914;53.552;9.908;2023-03-14T03:51:27;10.70;99.90
13684;DHT22;6914;53.552;9.908;2023-03-14T03:53:54;10.90;99.90
13684;DHT22;6914;53.552;9.908;2023-03-14T03:56:22;11.10;99.90
13684;DHT22;6914;53.552;9.908;2023-03-14T03:58:49;10.80;99.90
13684;DHT22;6914;53.552;9.908;2023-03-14T04:01:16;10.80;99.90
13684;DHT22;6914;53.552;9.908;2023-03-14T04:03:43;10.50;99.90
13684;DHT22;6914;53.552;9.908;2023-03-14T04:06:17;10.70;99.90
13684;DHT22;6914;53.552;9.908;2023-03-14T04:08:43;12.20;99.90
13684;DHT22;6914;53.552;9.908;2023-03-14T04:11:10;10.70;99.90
13684;DHT22;6914;53.552;9.908;2023-03-14T04:13:37;10.60;99.90
13684;DHT22;6914;53.552;9.908;2023-03-14T04:16:12;10.60;99.90
13684;DHT22;6914;53.552;9.908;2023-03-14T04:18:43;10.50;99.90
13684;DHT22;6914;53.552;9.908;2023-03-14T04:21:13;10.50;99.90
13684;DHT22;6914;53.552;9.908;2023-03-14T04:23:42;10.70;99.90
13684;DHT22;6914;53.552;9.908;2023-03-14T04:26:09;10.70;99.90
13684;DHT22;6914;53.552;9.908;2023-03-14T04:28:36;10.50;99.90
13684;DHT22;6914;53.552;9.908;2023-03-14T04:31:07;10.70;99.90
13684;DHT22;6914;53.552;9.908;2023-03-14T04:33:34;10.70;99.90
13684;DHT22;6914;53.552;9.908;2023-03-14T04:36:03;10.40;99.90
13684;DHT22;6914;53.552;9.908;2023-03-14T04:38:33;10.60;99.90
13684;DHT22;6914;53.552;9.908;2023-03-14T04:41:00;10.70;99.90
13684;DHT22;6914;53.552;9.908;2023-03-14T04:43:29;10.60;99.90
13684;DHT22;6914;53.552;9.908;2023-03-14T04:45:57;10.70;99.90
13684;DHT22;6914;53.552;9.908;2023-03-14T04:48:25;10.70;99.90
13684;DHT22;6914;53.552;9.908;2023-03-14T04:50:53;10.50;99.90
13684;DHT22;6914;53.552;9.908;2023-03-14T04:53:20;10.70;99.90
13684;DHT22;6914;53.552;9.908;2023-03-14T04:55:50;10.90;99.90
13684;DHT22;6914;53.552;9.908;2023-03-14T04:58:18;10.70;99.90
13684;DHT22;6914;53.552;9.908;2023-03-14T05:00:45;10.50;99.90
13684;DHT22;6914;53.552;9.908;2023-03-14T05:03:14;10.80;99.90
13684;DHT22;6914;53.552;9.908;2023-03-14T05:05:44;10.80;99.90
13684;DHT22;6914;53.552;9.908;2023-03-14T05:08:11;10.80;99.90
13684;DHT22;6914;53.552;9.908;2023-03-14T05:10:38;10.50;99.90
13684;DHT22;6914;53.552;9.908;2023-03-14T05:13:06;10.60;99.90
13684;DHT22;6914;53.552;9.908;2023-03-14T05:15:33;10.10;99.90
13684;DHT22;6914;53.552;9.908;2023-03-14T05:18:00;9.90;99.90
13684;DHT22;6914;53.552;9.908;2023-03-14T05:20:29;9.80;99.90
13684;DHT22;6914;53.552;9.908;2023-03-14T05:22:56;9.10;99.90
13684;DHT22;6914;53.552;9.908;2023-03-14T05:25:24;9.10;99.90
13684;DHT22;6914;53.552;9.908;2023-03-14T05:27:53;9.20;99.90
13684;DHT22;6914;53.552;9.908;2023-03-14T05:30:22;9.70;99.90
13684;DHT22;6914;53.552;9.908;2023-03-14T05:32:49;9.20;99.90
13684;DHT22;6914;53.552;9.908;2023-03-14T05:35:25;9.40;99.90
13684;DHT22;6914;53.552;9.908;2023-03-14T05:37:52;10.10;99.90
13684;DHT22;6914;53.552;9.908;2023-03-14T05:40:19;9.00;99.90
13684;DHT22;6914;53.552;9.908;2023-03-14T05:42:46;9.10;99.90
13684;DHT22;6914;53.552;9.908;2023-03-14T05:45:31;9.00;99.90
13684;DHT22;6914;53.552;9.908;2023-03-14T05:47:59;9.10;99.90
13684;DHT22;6914;53.552;9.908;2023-03-14T05:50:26;9.10;99.90
13684;DHT22;6914;53.552;9.908;2023-03-14T05:52:53;9.20;99.90
13684;DHT22;6914;53.552;9.908;2023-03-14T05:55:20;9.00;99.90
13684;DHT22;6914;53.552;9.908;2023-03-14T05:57:47;8.90;99.90
13684;DHT22;6914;53.552;9.908;2023-03-14T06:00:14;8.90;99.90
13684;DHT22;6914;53.552;9.908;2023-03-14T06:02:45;9.30;99.90
13684;DHT22;6914;53.552;9.908;2023-03-14T06:05:27;9.30;99.90
13684;DHT22;6914;53.552;9.908;2023-03-14T06:08:00;9.30;99.90
13684;DHT22;6914;53.552;9.908;2023-03-14T06:10:27;9.50;99.90
13684;DHT22;6914;53.552;9.908;2023-03-14T06:12:54;9.10;99.90
13684;DHT22;6914;53.552;9.908;2023-03-14T06:15:20;9.00;99.90
13684;DHT22;6914;53.552;9.908;2023-03-14T06:17:49;8.90;99.90
13684;DHT22;6914;53.552;9.908;2023-03-14T06:20:16;9.50;99.90
13684;DHT22;6914;53.552;9.908;2023-03-14T06:22:46;9.40;99.90
13684;DHT22;6914;53.552;9.908;2023-03-14T06:25:13;9.20;99.90
13684;DHT22;6914;53.552;9.908;2023-03-14T06:27:39;9.40;99.90
13684;DHT22;6914;53.552;9.908;2023-03-14T06:30:08;9.40;99.90
13684;DHT22;6914;53.552;9.908;2023-03-14T06:32:35;9.40;99.90
13684;DHT22;6914;53.552;9.908;2023-03-14T06:35:03;9.30;99.90
13684;DHT22;6914;53.552;9.908;2023-03-14T06:37:30;9.30;99.90
13684;DHT22;6914;53.552;9.908;2023-03-14T06:39:57;9.30;99.90
13684;DHT22;6914;53.552;9.908;2023-03-14T06:42:24;9.40;99.90
13684;DHT22;6914;53.552;9.908;2023-03-14T06:44:51;9.40;99.90
13684;DHT22;6914;53.552;9.908;2023-03-14T06:47:19;9.10;99.90
13684;DHT22;6914;53.552;9.908;2023-03-14T06:49:47;9.30;99.90
13684;DHT22;6914;53.552;9.908;2023-03-14T06:52:16;9.60;99.90
13684;DHT22;6914;53.552;9.908;2023-03-14T06:54:46;9.40;99.90
13684;DHT22;6914;53.552;9.908;2023-03-14T06:57:12;9.30;99.90
13684;DHT22;6914;53.552;9.908;2023-03-14T06:59:39;9.40;99.90
13684;DHT22;6914;53.552;9.908;2023-03-14T07:02:08;9.50;99.90
13684;DHT22;6914;53.552;9.908;2023-03-14T07:04:36;9.50;99.90
13684;DHT22;6914;53.552;9.908;2023-03-14T07:07:03;9.40;99.90
13684;DHT22;6914;53.552;9.908;2023-03-14T07:09:32;10.00;99.90
13684;DHT22;6914;53.552;9.908;2023-03-14T07:11:59;9.60;99.90
13684;DHT22;6914;53.552;9.908;2023-03-14T07:14:26;9.60;99.90
13684;DHT22;6914;53.552;9.908;2023-03-14T07:16:53;9.60;99.90
13684;DHT22;6914;53.552;9.908;2023-03-14T07:19:21;9.60;99.90
13684;DHT22;6914;53.552;9.908;2023-03-14T07:21:48;9.70;99.90
13684;DHT22;6914;53.552;9.908;2023-03-14T07:24:15;9.70;99.90
13684;DHT22;6914;53.552;9.908;2023-03-14T07:26:44;9.70;99.90
13684;DHT22;6914;53.552;9.908;2023-03-14T07:29:11;10.10;99.90
13684;DHT22;6914;53.552;9.908;2023-03-14T07:31:38;9.70;99.90
13684;DHT22;6914;53.552;9.908;2023-03-14T07:34:05;9.80;99.90
13684;DHT22;6914;53.552;9.908;2023-03-14T07:36:32;9.70;99.90
13684;DHT22;6914;53.552;9.908;2023-03-14T07:38:59;9.90;99.90
13684;DHT22;6914;53.552;9.908;2023-03-14T07:41:26;9.80;99.90
13684;DHT22;6914;53.552;9.908;2023-03-14T07:43:54;9.50;99.90
13684;DHT22;6914;53.552;9.908;2023-03-14T07:46:21;9.70;99.90
13684;DHT22;6914;53.552;9.908;2023-03-14T07:48:48;8.10;99.90
13684;DHT22;6914;53.552;9.908;2023-03-14T07:51:15;9.50;99.90
13684;DHT22;6914;53.552;9.908;2023-03-14T07:53:42;9.60;99.90
13684;DHT22;6914;53.552;9.908;2023-03-14T07:56:09;9.60;99.90
13684;DHT22;6914;53.552;9.908;2023-03-14T07:58:36;10.10;99.90
13684;DHT22;6914;53.552;9.908;2023-03-14T08:01:05;9.60;99.90
13684;DHT22;6914;53.552;9.908;2023-03-14T08:03:32;9.60;99.90
13684;DHT22;6914;53.552;9.908;2023-03-14T08:05:59;9.70;99.90
13684;DHT22;6914;53.552;9.908;2023-03-14T08:08:26;9.60;99.90
13684;DHT22;6914;53.552;9.908;2023-03-14T08:10:52;9.90;99.90
13684;DHT22;6914;53.552;9.908;2023-03-14T08:13:20;10.10;99.90
13684;DHT22;6914;53.552;9.908;2023-03-14T08:15:51;9.90;99.90
13684;DHT22;6914;53.552;9.908;2023-03-14T08:18:19;10.40;99.90
13684;DHT22;6914;53.552;9.908;2023-03-14T08:20:49;10.30;99.90
13684;DHT22;6914;53.552;9.908;2023-03-14T08:23:15;10.40;99.90
13684;DHT22;6914;53.552;9.908;2023-03-14T08:25:42;10.40;99.90
13684;DHT22;6914;53.552;9.908;2023-03-14T08:28:09;10.50;99.90
13684;DHT22;6914;53.552;9.908;2023-03-14T08:30:36;10.20;99.90
13684;DHT22;6914;53.552;9.908;2023-03-14T08:33:03;10.20;99.90
13684;DHT22;6914;53.552;9.908;2023-03-14T08:35:31;10.40;99.90
13684;DHT22;6914;53.552;9.908;2023-03-14T08:37:58;10.40;99.90
13684;DHT22;6914;53.552;9.908;2023-03-14T08:40:25;10.40;99.90
13684;DHT22;6914;53.552;9.908;2023-03-14T08:42:52;10.60;99.90
13684;DHT22;6914;53.552;9.908;2023-03-14T08:45:19;10.80;99.90
13684;DHT22;6914;53.552;9.908;2023-03-14T08:47:50;10.60;99.90
13684;DHT22;6914;53.552;9.908;2023-03-14T08:50:17;10.60;99.90
13684;DHT22;6914;53.552;9.908;2023-03-14T08:52:46;10.70;99.90
13684;DHT22;6914;53.552;9.908;2023-03-14T08:55:13;10.50;99.90
13684;DHT22;6914;53.552;9.908;2023-03-14T08:57:39;10.30;99.90
13684;DHT22;6914;53.552;9.908;2023-03-14T09:00:08;10.20;99.90
13684;DHT22;6914;53.552;9.908;2023-03-14T09:02:40;10.20;99.90
13684;DHT22;6914;53.552;9.908;2023-03-14T09:05:08;10.00;99.90
13684;DHT22;6914;53.552;9.908;2023-03-14T09:07:35;10.10;99.90
13684;DHT22;6914;53.552;9.908;2023-03-14T09:10:05;10.10;99.90
13684;DHT22;6914;53.552;9.908;2023-03-14T09:12:32;10.10;99.90
13684;DHT22;6914;53.552;9.908;2023-03-14T09:14:59;10.00;99.90
13684;DHT22;6914;53.552;9.908;2023-03-14T09:17:26;10.50;99.90
13684;DHT22;6914;53.552;9.908;2023-03-14T09:19:53;10.00;99.90
13684;DHT22;6914;53.552;9.908;2023-03-14T09:22:22;10.10;99.90
13684;DHT22;6914;53.552;9.908;2023-03-14T09:24:49;10.10;99.90
13684;DHT22;6914;53.552;9.908;2023-03-14T09:27:18;10.00;99.90
13684;DHT22;6914;53.552;9.908;2023-03-14T09:29:45;10.10;99.90
13684;DHT22;6914;53.552;9.908;2023-03-14T09:32:12;10.10;99.90
13684;DHT22;6914;53.552;9.908;2023-03-14T09:34:39;10.20;99.90
13684;DHT22;6914;53.552;9.908;2023-03-14T09:37:06;10.30;99.90
13684;DHT22;6914;53.552;9.908;2023-03-14T09:39:33;10.10;99.90
13684;DHT22;6914;53.552;9.908;2023-03-14T09:42:02;10.30;99.90
13684;DHT22;6914;53.552;9.908;2023-03-14T09:44:33;10.20;99.90
13684;DHT22;6914;53.552;9.908;2023-03-14T09:47:04;10.10;99.90
13684;DHT22;6914;53.552;9.908;2023-03-14T09:49:34;10.00;99.90
13684;DHT22;6914;53.552;9.908;2023-03-14T09:52:07;10.00;99.90
13684;DHT22;6914;53.552;9.908;2023-03-14T09:54:40;9.50;99.90
13684;DHT22;6914;53.552;9.908;2023-03-14T09:57:12;8.80;99.90
13684;DHT22;6914;53.552;9.908;2023-03-14T09:59:42;8.30;99.90
13684;DHT22;6914;53.552;9.908;2023-03-14T10:02:17;8.20;99.90
13684;DHT22;6914;53.552;9.908;2023-03-14T10:04:45;7.30;99.90
13684;DHT22;6914;53.552;9.908;2023-03-14T10:07:15;8.00;99.90
13684;DHT22;6914;53.552;9.908;2023-03-14T10:09:45;7.90;99.90
13684;DHT22;6914;53.552;9.908;2023-03-14T10:12:14;7.70;99.90
13684;DHT22;6914;53.552;9.908;2023-03-14T10:14:48;7.70;99.90
13684;DHT22;6914;53.552;9.908;2023-03-14T10:17:17;7.40;99.90
13684;DHT22;6914;53.552;9.908;2023-03-14T10:19:52;7.30;99.90
13684;DHT22;6914;53.552;9.908;2023-03-14T10:22:20;6.10;99.90
13684;DHT22;6914;53.552;9.908;2023-03-14T10:24:52;7.10;99.90
13684;DHT22;6914;53.552;9.908;2023-03-14T10:27:21;7.20;99.90
13684;DHT22;6914;53.552;9.908;2023-03-14T10:29:56;7.00;99.90
13684;DHT22;6914;53.552;9.908;2023-03-14T10:32:32;6.90;99.90
13684;DHT22;6914;53.552;9.908;2023-03-14T10:35:17;6.90;99.90
13684;DHT22;6914;53.552;9.908;2023-03-14T10:37:52;6.70;99.90
13684;DHT22;6914;53.552;9.908;2023-03-14T10:40:27;6.40;99.90
13684;DHT22;6914;53.552;9.908;2023-03-14T10:42:56;6.10;99.90
13684;DHT22;6914;53.552;9.908;2023-03-14T10:45:36;6.00;99.90
13684;DHT22;6914;53.552;9.908;2023-03-14T10:48:19;5.70;99.90
13684;DHT22;6914;53.552;9.908;2023-03-14T10:50:55;5.60;99.90
13684;DHT22;6914;53.552;9.908;2023-03-14T10:53:26;5.70;99.90
13684;DHT22;6914;53.552;9.908;2023-03-14T10:55:55;5.50;99.90
13684;DHT22;6914;53.552;9.908;2023-03-14T10:58:25;5.30;99.90
13684;DHT22;6914;53.552;9.908;2023-03-14T11:01:00;5.70;99.90
13684;DHT22;6914;53.552;9.908;2023-03-14T11:03:31;5.40;99.90
13684;DHT22;6914;53.552;9.908;2023-03-14T11:06:04;5.00;99.90
13684;DHT22;6914;53.552;9.908;2023-03-14T11:08:36;5.00;99.90
13684;DHT22;6914;53.552;9.908;2023-03-14T11:11:14;5.10;99.90
13684;DHT22;6914;53.552;9.908;2023-03-14T11:13:48;5.00;99.90
13684;DHT22;6914;53.552;9.908;2023-03-14T11:16:25;5.00;99.90
13684;DHT22;6914;53.552;9.908;2023-03-14T11:22:04;5.10;99.90
13684;DHT22;6914;53.552;9.908;2023-03-14T11:24:45;4.90;99.90
13684;DHT22;6914;53.552;9.908;2023-03-14T11:27:17;4.80;99.90
13684;DHT22;6914;53.552;9.908;2023-03-14T11:29:54;4.80;99.90
13684;DHT22;6914;53.552;9.908;2023-03-14T11:32:39;4.80;99.90
13684;DHT22;6914;53.552;9.908;2023-03-14T11:35:16;4.80;99.90
13684;DHT22;6914;53.552;9.908;2023-03-14T11:37:47;4.90;99.90
13684;DHT22;6914;53.552;9.908;2023-03-14T11:40:19;5.00;99.90
13684;DHT22;6914;53.552;9.908;2023-03-14T11:42:53;5.10;99.90
13684;DHT22;6914;53.552;9.908;2023-03-14T11:45:29;5.20;99.90
13684;DHT22;6914;53.552;9.908;2023-03-14T11:48:13;7.00;99.90
13684;DHT22;6914;53.552;9.908;2023-03-14T11:50:44;5.70;99.90
13684;DHT22;6914;53.552;9.908;2023-03-14T11:53:16;5.80;99.90
13684;DHT22;6914;53.552;9.908;2023-03-14T11:55:45;5.90;99.90
13684;DHT22;6914;53.552;9.908;2023-03-14T11:58:15;5.70;99.90
13684;DHT22;6914;53.552;9.908;2023-03-14T12:00:44;5.80;99.90
13684;DHT22;6914;53.552;9.908;2023-03-14T12:03:21;5.70;99.90
13684;DHT22;6914;53.552;9.908;2023-03-14T12:06:02;5.80;99.90
13684;DHT22;6914;53.552;9.908;2023-03-14T12:08:42;5.70;99.90
13684;DHT22;6914;53.552;9.908;2023-03-14T12:11:14;5.70;99.90
13684;DHT22;6914;53.552;9.908;2023-03-14T12:13:47;5.80;99.90
13684;DHT22;6914;53.552;9.908;2023-03-14T12:16:31;5.90;99.90
13684;DHT22;6914;53.552;9.908;2023-03-14T12:19:14;6.00;99.90
13684;DHT22;6914;53.552;9.908;2023-03-14T12:21:55;5.90;99.90
13684;DHT22;6914;53.552;9.908;2023-03-14T12:24:27;5.80;99.90
13684;DHT22;6914;53.552;9.908;2023-03-14T12:26:55;5.50;99.90
13684;DHT22;6914;53.552;9.908;2023-03-14T12:29:24;5.80;99.90
13684;DHT22;6914;53.552;9.908;2023-03-14T12:32:20;5.90;99.90
13684;DHT22;6914;53.552;9.908;2023-03-14T12:34:50;6.10;99.90
13684;DHT22;6914;53.552;9.908;2023-03-14T12:37:23;6.40;99.90
13684;DHT22;6914;53.552;9.908;2023-03-14T12:40:06;6.00;99.90
13684;DHT22;6914;53.552;9.908;2023-03-14T12:42:43;6.10;99.90
13684;DHT22;6914;53.552;9.908;2023-03-14T12:45:23;6.00;99.90
13684;DHT22;6914;53.552;9.908;2023-03-14T12:48:05;5.90;99.90
13684;DHT22;6914;53.552;9.908;2023-03-14T12:50:40;6.10;99.90
13684;DHT22;6914;53.552;9.908;2023-03-14T12:56:11;6.10;99.90
13684;DHT22;6914;53.552;9.908;2023-03-14T12:58:44;5.80;99.90
13684;DHT22;6914;53.552;9.908;2023-03-14T13:01:16;5.70;99.90
13684;DHT22;6914;53.552;9.908;2023-03-14T13:03:47;5.50;99.90
13684;DHT22;6914;53.552;9.908;2023-03-14T13:06:48;5.50;99.90
13684;DHT22;6914;53.552;9.908;2023-03-14T13:09:52;5.40;99.90
13684;DHT22;6914;53.552;9.908;2023-03-14T13:12:25;5.60;99.90
13684;DHT22;6914;53.552;9.908;2023-03-14T13:14:59;6.00;99.90
13684;DHT22;6914;53.552;9.908;2023-03-14T13:17:31;6.60;99.90
13684;DHT22;6914;53.552;9.908;2023-03-14T13:20:02;6.40;99.90
13684;DHT22;6914;53.552;9.908;2023-03-14T13:22:33;6.70;99.90
13684;DHT22;6914;53.552;9.908;2023-03-14T13:25:04;6.90;99.90
13684;DHT22;6914;53.552;9.908;2023-03-14T13:27:34;6.90;99.90
13684;DHT22;6914;53.552;9.908;2023-03-14T13:30:12;7.10;99.90
13684;DHT22;6914;53.552;9.908;2023-03-14T13:32:42;7.00;99.90
13684;DHT22;6914;53.552;9.908;2023-03-14T13:35:18;7.00;99.90
13684;DHT22;6914;53.552;9.908;2023-03-14T13:37:51;7.00;99.90
13684;DHT22;6914;53.552;9.908;2023-03-14T13:40:23;6.90;99.90
13684;DHT22;6914;53.552;9.908;2023-03-14T13:43:00;6.80;98.50
13684;DHT22;6914;53.552;9.908;2023-03-14T13:45:28;6.60;99.90
13684;DHT22;6914;53.552;9.908;2023-03-14T13:47:55;6.70;99.90
13684;DHT22;6914;53.552;9.908;2023-03-14T13:50:22;6.90;99.90
13684;DHT22;6914;53.552;9.908;2023-03-14T13:52:56;6.90;99.90
13684;DHT22;6914;53.552;9.908;2023-03-14T13:55:24;6.90;99.90
13684;DHT22;6914;53.552;9.908;2023-03-14T13:57:54;6.90;98.50
13684;DHT22;6914;53.552;9.908;2023-03-14T14:00:23;7.00;99.90
13684;DHT22;6914;53.552;9.908;2023-03-14T14:02:54;7.20;99.90
13684;DHT22;6914;53.552;9.908;2023-03-14T14:05:21;6.90;99.90
13684;DHT22;6914;53.552;9.908;2023-03-14T14:07:49;6.80;99.90
13684;DHT22;6914;53.552;9.908;2023-03-14T14:10:19;6.60;99.90
13684;DHT22;6914;53.552;9.908;2023-03-14T14:12:49;6.40;99.90
13684;DHT22;6914;53.552;9.908;2023-03-14T14:15:20;6.40;99.90
13684;DHT22;6914;53.552;9.908;2023-03-14T14:17:50;6.70;99.90
13684;DHT22;6914;53.552;9.908;2023-03-14T14:20:22;6.90;99.90
13684;DHT22;6914;53.552;9.908;2023-03-14T14:22:50;7.30;99.80
13684;DHT22;6914;53.552;9.908;2023-03-14T14:25:19;7.00;79.60
13684;DHT22;6914;53.552;9.908;2023-03-14T14:27:48;7.50;73.90
13684;DHT22;6914;53.552;9.908;2023-03-14T14:30:30;7.50;78.40
13684;DHT22;6914;53.552;9.908;2023-03-14T14:33:16;7.40;76.60
13684;DHT22;6914;53.552;9.908;2023-03-14T14:35:50;7.40;77.30
13684;DHT22;6914;53.552;9.908;2023-03-14T14:38:18;7.30;76.90
13684;DHT22;6914;53.552;9.908;2023-03-14T14:40:50;7.00;72.30
13684;DHT22;6914;53.552;9.908;2023-03-14T14:43:21;6.80;72.10
13684;DHT22;6914;53.552;9.908;2023-03-14T14:45:51;6.80;71.80
13684;DHT22;6914;53.552;9.908;2023-03-14T14:48:20;6.80;72.70
13684;DHT22;6914;53.552;9.908;2023-03-14T14:50:56;6.70;70.00
13684;DHT22;6914;53.552;9.908;2023-03-14T14:53:30;6.80;73.90
13684;DHT22;6914;53.552;9.908;2023-03-14T14:56:04;6.60;74.10
13684;DHT22;6914;53.552;9.908;2023-03-14T14:58:35;6.70;82.40
13684;DHT22;6914;53.552;9.908;2023-03-14T15:01:07;6.50;76.20
13684;DHT22;6914;53.552;9.908;2023-03-14T15:03:34;6.40;78.40
13684;DHT22;6914;53.552;9.908;2023-03-14T15:06:01;6.40;93.90
13684;DHT22;6914;53.552;9.908;2023-03-14T15:08:30;6.30;86.30
13684;DHT22;6914;53.552;9.908;2023-03-14T15:10:58;6.30;99.90
13684;DHT22;6914;53.552;9.908;2023-03-14T15:13:26;6.70;99.10
13684;DHT22;6914;53.552;9.908;2023-03-14T15:15:56;6.40;99.90
13684;DHT22;6914;53.552;9.908;2023-03-14T15:18:25;6.20;99.90
13684;DHT22;6914;53.552;9.908;2023-03-14T15:20:54;6.30;99.90
13684;DHT22;6914;53.552;9.908;2023-03-14T15:23:22;6.40;99.90
13684;DHT22;6914;53.552;9.908;2023-03-14T15:25:49;6.50;99.90
13684;DHT22;6914;53.552;9.908;2023-03-14T15:28:19;6.70;99.90
13684;DHT22;6914;53.552;9.908;2023-03-14T15:30:47;6.90;99.90
13684;DHT22;6914;53.552;9.908;2023-03-14T15:33:15;6.80;99.90
13684;DHT22;6914;53.552;9.908;2023-03-14T15:35:42;6.90;99.90
13684;DHT22;6914;53.552;9.908;2023-03-14T15:38:11;6.80;99.90
13684;DHT22;6914;53.552;9.908;2023-03-14T15:40:39;7.40;99.90
13684;DHT22;6914;53.552;9.908;2023-03-14T15:43:06;6.50;99.90
13684;DHT22;6914;53.552;9.908;2023-03-14T15:45:34;6.30;96.50
13684;DHT22;6914;53.552;9.908;2023-03-14T15:48:02;6.20;96.10
13684;DHT22;6914;53.552;9.908;2023-03-14T15:50:30;5.50;98.90
13684;DHT22;6914;53.552;9.908;2023-03-14T15:52:57;6.30;99.90
13684;DHT22;6914;53.552;9.908;2023-03-14T15:55:24;6.10;99.90
13684;DHT22;6914;53.552;9.908;2023-03-14T15:57:52;6.00;99.90
13684;DHT22;6914;53.552;9.908;2023-03-14T16:00:21;6.00;99.00
13684;DHT22;6914;53.552;9.908;2023-03-14T16:02:51;6.20;99.20
13684;DHT22;6914;53.552;9.908;2023-03-14T16:05:18;5.90;99.90
13684;DHT22;6914;53.552;9.908;2023-03-14T16:07:46;5.90;99.90
13684;DHT22;6914;53.552;9.908;2023-03-14T16:10:14;5.80;99.00
13684;DHT22;6914;53.552;9.908;2023-03-14T16:12:42;5.80;96.40
13684;DHT22;6914;53.552;9.908;2023-03-14T16:15:10;5.80;90.80
13684;DHT22;6914;53.552;9.908;2023-03-14T16:17:36;5.80;93.20
13684;DHT22;6914;53.552;9.908;2023-03-14T16:20:07;5.90;94.80